Date,TemperatureHighF,TemperatureAvgF,TemperatureLowF,DewpointHighF,DewpointAvgF,DewpointLowF,HumidityHigh,HumidityAvg,HumidityLow,PressureMaxIn,PressureMinIn,WindSpeedMaxMPH,WindSpeedAvgMPH,GustSpeedMaxMPH,PrecipitationSumIn
2013-6-1,88.9,73.3,61.6,63.4,58.4,53.7,95,63,32,30.15,30.00,14,3,16,0.00
2013-6-2,75.9,69.5,62.7,65.1,61.2,56.8,98,75,58,30.03,29.91,16,3,17,0.41
2013-6-3,73.5,66.5,60.1,65.4,58.3,52.0,98,77,50,30.06,29.91,16,3,18,0.01
2013-6-4,80.2,64.8,52.3,60.8,51.8,46.6,98,68,34,30.15,30.03,11,2,12,0.00
2013-6-5,77.0,65.9,57.0,60.2,54.9,46.5,82,68,54,30.18,30.03,11,2,12,0.00
2013-6-6,67.6,64.9,62.2,66.8,62.0,56.1,98,91,73,30.09,29.88,7,0,8,0.58
2013-6-7,70.3,65.7,61.8,69.4,63.3,54.9,98,92,75,29.88,29.73,17,2,18,0.78
2013-6-8,80.3,66.4,57.5,59.6,55.2,49.5,98,71,39,30.15,29.88,14,2,15,0.00
2013-6-9,85.5,69.5,57.4,64.3,57.2,49.2,98,70,30,30.21,30.09,12,2,13,0.19
2013-6-10,73.1,67.7,62.9,70.8,63.6,56.7,98,88,60,30.12,29.91,21,2,23,0.62
2013-6-11,75.9,67.2,61.2,63.3,60.1,55.7,98,80,54,30.03,29.91,17,4,18,0.15
2013-6-12,86.3,74.1,64.2,69.4,64.6,60.2,93,74,48,30.03,29.94,18,4,20,0.00
2013-6-13,73.5,67.4,62.2,70.1,62.6,50.0,98,85,63,29.94,29.70,31,5,34,0.87
2013-6-14,73.7,64.2,58.3,54.1,51.1,47.6,83,64,44,30.09,29.85,20,6,22,0.01
2013-6-15,80.0,64.6,52.2,60.8,51.9,47.9,98,68,34,30.18,30.09,14,2,16,0.00
2013-6-16,79.8,66.7,56.1,66.4,59.6,52.7,98,79,53,30.12,30.03,14,3,16,0.08
2013-6-17,85.5,72.2,63.5,67.2,62.5,57.0,98,75,40,30.06,29.97,14,2,16,0.00
2013-6-18,70.3,66.6,62.0,67.8,64.0,60.6,98,92,74,30.00,29.91,7,0,8,1.64
2013-6-19,83.1,67.4,57.4,66.3,58.3,50.1,98,77,33,30.18,30.00,11,1,12,0.01
2013-6-20,84.4,71.7,63.5,65.3,59.9,52.5,98,70,36,30.27,30.18,11,2,12,0.00
2013-6-21,86.5,73.6,65.0,64.1,61.1,57.3,94,68,39,30.29,30.24,10,2,10,0.00
2013-6-22,86.1,71.7,60.3,63.0,58.2,52.3,98,66,37,30.29,30.18,11,2,12,0.00
2013-6-23,87.4,73.4,62.7,65.9,60.2,53.8,96,67,34,30.27,30.15,14,2,15,0.00
2013-6-24,83.3,70.4,62.7,70.0,63.9,59.1,97,81,49,30.27,30.12,14,2,15,0.39
2013-6-25,87.8,73.2,63.8,72.0,64.9,59.1,98,79,41,30.18,30.03,11,2,12,0.00
2013-6-26,83.5,74.0,66.8,71.8,65.0,58.2,98,76,46,30.09,29.97,18,3,20,0.00
2013-6-27,75.9,69.9,65.5,68.5,65.2,62.5,98,86,67,29.97,29.79,12,3,13,0.03
2013-6-28,85.0,73.7,65.2,71.4,61.0,50.1,98,69,33,29.82,29.65,24,6,26,0.21
2013-6-29,81.5,69.0,58.3,64.2,58.6,54.2,98,72,43,29.79,29.67,12,2,13,0.01
2013-6-30,86.8,71.8,60.0,65.5,59.8,52.7,98,70,33,29.94,29.79,10,2,10,0.00